KWRB/WRB METAR and TAF weather

Enter ICAO airport designator
Station Type Date Time Source
KWRB METAR 2023/02/04 02:55 UTC NOAA

KWRB 040255Z AUTO 33010KT 10SM CLR 05/M04 A3038 RMK AO2 SLPNO T00511045 52023


Station Type Date Time Source
KWRB Decoded METAR 2023/02/04 02:55 UTC NOAA

Warner Robins Air Force Base, GA, United States (KWRB) 32-38N 083-36W
Feb 03, 2023 - 09:55 PM EST / 2023.02.04 0255 UTC
Wind: from the NNW (330 degrees) at 12 MPH (10 KT):0
Visibility: 10 mile(s):0
Sky conditions: clear
Temperature: 41.2 F (5.1 C)
Dew Point: 23.9 F (-4.5 C)
Relative Humidity: 49%
Pressure (altimeter): 30.38 in. Hg (1028 hPa)
Pressure tendency: 0.07 inches (2.3 hPa) higher than three hours ago
ob: KWRB 040255Z AUTO 33010KT 10SM CLR 05/M04 A3038 RMK AO2 SLPNO T00511045 52023
cycle: 3

Station Type Date Time Source
KWRB TAF 2023/02/04 00:51 UTC NOAA

TAF
AMD KWRB 040035Z 0400/0506 32009KT 9999 SKC QNH3031INS
BECMG 0409/0410 VRB06KT 8000 BR SCT020 QNH3038INS
BECMG 0411/0412 VRB06KT 9999 NSW FEW020 QNH3039INS TX10/0421Z TN01/0412Z

Example: see airport list